Aviation Digital Data Service (ADDS)

Output produced by METARs form (0251 UTC 06 July 2015)
found at http://www.aviationweather.gov/adds/metars/
 
KDUJ 060153Z AUTO 12005KT 10SM CLR 21/14 A3015 RMK AO2 SLP201 T02060144
KDUJ 060053Z AUTO 11005KT 10SM CLR 21/14 A3014 RMK AO2 SLP198 T02060139
KDUJ 052353Z AUTO 11005KT 10SM CLR 22/13 A3015 RMK AO2 SLP199 T02220133 10272 20222 56001
KDUJ 052253Z AUTO 12004KT 10SM CLR 23/13 A3015 RMK AO2 SLP202 T02330128
KDUJ 052153Z AUTO 12003KT 10SM CLR 24/12 A3014 RMK AO2 SLP198 T02440117
KDUJ 052053Z AUTO 16005KT 10SM CLR 26/11 A3015 RMK AO2 SLP200 T02560111 56008
KDUJ 051953Z AUTO 14006KT 10SM SCT041 26/15 A3015 RMK AO2 SLP201 T02560150
KDUJ 051853Z AUTO 05005KT 10SM CLR 27/10 A3017 RMK AO2 SLP204 T02670100
KDUJ 051753Z AUTO VRB03KT 10SM CLR 26/10 A3018 RMK AO2 SLP209 T02610100 10261 20156 58005
KDUJ 051653Z AUTO 10003KT 10SM CLR 24/11 A3019 RMK AO2 SLP213 T02440111
KDUJ 051553Z AUTO VRB04KT 10SM CLR 23/14 A3019 RMK AO2 SLP214 T02280139
KDUJ 051453Z AUTO 13004KT 10SM CLR 21/14 A3019 RMK AO2 SLP217 T02060144 51005
KDUJ 051353Z AUTO 00000KT 10SM CLR 19/14 A3019 RMK AO2 SLP213 T01940139
KDUJ 051253Z AUTO VRB03KT 10SM CLR 18/14 A3018 RMK AO2 SLP211 T01830139
KDUJ 051153Z AUTO 09004KT 10SM CLR 16/13 A3018 RMK AO2 SLP209 70003 T01610128 10161 20117 53021
KDUJ 051053Z AUTO 00000KT 7SM CLR 13/11 A3016 RMK AO2 SLP203 T01280106
KDUJ 050953Z AUTO 00000KT 10SM CLR 13/10 A3013 RMK AO2 SLP193 T01280100
KDUJ 050853Z AUTO 00000KT 10SM CLR 13/09 A3011 RMK AO2 SLP188 T01280094 53001
KDUJ 050753Z AUTO 00000KT 10SM CLR 13/11 A3011 RMK AO2 SLP187 T01330106
KDUJ 050653Z AUTO 01003KT 10SM CLR 14/10 A3011 RMK AO2 SLP186 T01440100
KDUJ 050553Z AUTO 00000KT 10SM CLR 14/09 A3011 RMK AO2 SLP187 T01390094 10228 20128 53012
KDUJ 050453Z AUTO 00000KT 10SM CLR 14/11 A3010 RMK AO2 SLP182 T01390106 402610139
KDUJ 050353Z AUTO 00000KT 10SM CLR 16/11 A3008 RMK AO2 SLP178 T01560106
KDUJ 050253Z AUTO 00000KT 10SM CLR 15/12 A3007 RMK AO2 SLP176 T01500122 53022
KDUJ 050153Z AUTO 33003KT 10SM CLR 19/12 A3005 RMK AO2 SLP166 T01890117
KDUJ 050053Z AUTO 32004KT 10SM CLR 20/13 A3002 RMK AO2 SLP156 T02000128
KDUJ 042353Z AUTO 31006KT 10SM CLR 23/14 A3000 RMK AO2 SLP149 60003 T02280139 10261 20228 53014
KDUJ 042253Z AUTO 30007KT 10SM CLR 24/15 A2998 RMK AO2 SLP140 T02440150
KDUJ 042153Z AUTO 30009KT 10SM FEW042 SCT049 SCT065 26/16 A2996 RMK AO2 SLP134 T02560156
KDUJ 042053Z AUTO 00000KT 10SM FEW041 FEW055 SCT090 24/19 A2996 RMK AO2 RAE05 SLP133 P0000 60003 T02440194 58001
KDUJ 042001Z AUTO 00000KT 9SM -RA SCT042 BKN049 OVC085 23/18 A2996 RMK AO2 P0000 T02330183
KDUJ 041953Z AUTO 00000KT 2 1/2SM -RA SCT042 BKN049 OVC065 23/18 A2996 RMK AO2 VIS 1 1/2V5 RAB45 SLP135 P0003 T02280178
KDUJ 041853Z AUTO 16004KT 10SM FEW035 SCT060 BKN075 25/17 A2996 RMK AO2 SLP133 T02500172
KDUJ 041753Z AUTO 12005KT 10SM FEW025 BKN038 OVC046 24/17 A2996 RMK AO2 SLP134 T02390172 10244 20183 53001
KDUJ 041741Z AUTO 10006KT 10SM SCT025 BKN033 BKN043 24/16 A2996 RMK AO2 T02390161
KDUJ 041704Z AUTO 04006KT 10SM BKN023 BKN032 24/16 A2996 RMK AO2 T02390161
KDUJ 041653Z AUTO VRB03KT 10SM SCT023 SCT035 24/16 A2996 RMK AO2 SLP132 T02440161
KDUJ 041630Z AUTO VRB04KT 10SM FEW016 FEW029 SCT035 23/16 A2996 RMK AO2 T02330161
KDUJ 041553Z AUTO 06004KT 10SM FEW013 BKN023 OVC030 22/17 A2996 RMK AO2 SLP133 T02220167
KDUJ 041539Z AUTO 04004KT 10SM SCT014 BKN020 OVC024 22/17 A2996 RMK AO2 T02170172
KDUJ 041453Z AUTO 35003KT 10SM OVC011 21/17 A2995 RMK AO2 SLP129 T02060167 51004